createdAt,value
2018-02-08T00:00:12.164Z,-3.2
2018-02-08T00:01:13.549Z,-3.2
2018-02-08T00:02:14.934Z,-3.3
2018-02-08T00:03:16.318Z,-3.2
2018-02-08T00:04:17.701Z,-3.2
2018-02-08T00:05:19.084Z,-3.2
2018-02-08T00:06:20.470Z,-3.2
2018-02-08T00:07:21.854Z,-3.3
2018-02-08T00:08:23.238Z,-3.3
2018-02-08T00:09:24.629Z,-3.3
2018-02-08T00:10:26.009Z,-3.2
2018-02-08T00:11:27.468Z,-3.2
2018-02-08T00:12:28.903Z,-3.2
2018-02-08T00:13:30.291Z,-3.2
2018-02-08T00:14:31.670Z,-3.2
2018-02-08T00:15:33.051Z,-3.3
2018-02-08T00:16:34.437Z,-3.2
2018-02-08T00:17:35.822Z,-3.2
2018-02-08T00:18:37.226Z,-3.2
2018-02-08T00:19:38.607Z,-3.2
2018-02-08T00:20:39.989Z,-3.2
2018-02-08T00:21:41.374Z,-3.2
2018-02-08T00:22:42.755Z,-3.2
2018-02-08T00:23:44.143Z,-3.2
2018-02-08T00:24:45.529Z,-3.2
2018-02-08T00:25:46.910Z,-3.2
2018-02-08T00:26:48.294Z,-3.3
2018-02-08T00:27:49.674Z,-3.2
2018-02-08T00:28:51.078Z,-3.2
2018-02-08T00:29:52.441Z,-3.2
2018-02-08T00:30:53.829Z,-3.3
2018-02-08T00:31:55.213Z,-3.2
2018-02-08T00:32:56.622Z,-3.3
2018-02-08T00:33:58.002Z,-3.3
2018-02-08T00:34:59.385Z,-3.3
2018-02-08T00:36:00.767Z,-3.3
2018-02-08T00:37:02.149Z,-3.3
2018-02-08T00:38:03.535Z,-3.3
2018-02-08T00:39:04.918Z,-3.3
2018-02-08T00:40:06.301Z,-3.4
2018-02-08T00:41:07.686Z,-3.3
2018-02-08T00:42:09.067Z,-3.3
2018-02-08T00:43:10.452Z,-3.3
2018-02-08T00:44:11.875Z,-3.3
2018-02-08T00:45:13.216Z,-3.4
2018-02-08T00:46:14.602Z,-3.5
2018-02-08T00:47:15.979Z,-3.5
2018-02-08T00:48:17.367Z,-3.5
2018-02-08T00:49:18.751Z,-3.5
2018-02-08T00:50:20.132Z,-3.5
2018-02-08T00:51:21.514Z,-3.5
2018-02-08T00:52:22.898Z,-3.5
2018-02-08T00:53:24.282Z,-3.4
2018-02-08T00:54:25.664Z,-3.6
2018-02-08T00:55:27.047Z,-3.6
2018-02-08T00:56:28.431Z,-3.6
2018-02-08T00:57:29.812Z,-3.6
2018-02-08T00:58:31.197Z,-3.5
2018-02-08T00:59:32.579Z,-3.6
2018-02-08T01:00:33.966Z,-3.6
2018-02-08T01:01:35.460Z,-3.6
2018-02-08T01:02:36.718Z,-3.6
2018-02-08T01:03:38.110Z,-3.6
2018-02-08T01:04:39.494Z,-3.6
2018-02-08T01:05:40.880Z,-3.6
2018-02-08T01:06:42.263Z,-3.6
2018-02-08T01:07:43.648Z,-3.6
2018-02-08T01:08:45.033Z,-3.6
2018-02-08T01:09:46.413Z,-3.6
2018-02-08T01:10:47.796Z,-3.7
2018-02-08T01:11:49.183Z,-3.6
2018-02-08T01:12:50.568Z,-3.6
2018-02-08T01:13:51.954Z,-3.7
2018-02-08T01:14:53.337Z,-3.6
2018-02-08T01:15:54.719Z,-3.7
2018-02-08T01:16:56.106Z,-3.7
2018-02-08T01:17:57.490Z,-3.7
2018-02-08T01:18:58.876Z,-3.7
2018-02-08T01:20:00.260Z,-3.7
2018-02-08T01:21:01.642Z,-3.7
2018-02-08T01:22:03.028Z,-3.6
2018-02-08T01:23:04.409Z,-3.7
2018-02-08T01:24:05.792Z,-3.6
2018-02-08T01:25:07.178Z,-3.7
2018-02-08T01:26:08.573Z,-3.7
2018-02-08T01:27:09.957Z,-3.7
2018-02-08T01:28:11.343Z,-3.8
2018-02-08T01:29:12.730Z,-3.6
2018-02-08T01:30:14.112Z,-3.7
2018-02-08T01:31:15.502Z,-3.7
2018-02-08T01:32:16.880Z,-3.7
2018-02-08T01:33:18.320Z,-3.8
2018-02-08T01:34:19.648Z,-3.8
2018-02-08T01:35:21.035Z,-3.8
2018-02-08T01:36:22.418Z,-3.8
2018-02-08T01:37:23.798Z,-3.8
2018-02-08T01:38:25.180Z,-3.9
2018-02-08T01:39:26.564Z,-3.8
2018-02-08T01:40:27.948Z,-3.9
2018-02-08T01:41:29.332Z,-4.0
2018-02-08T01:42:30.714Z,-3.9
2018-02-08T01:43:32.103Z,-3.9
2018-02-08T01:44:33.484Z,-4.0
2018-02-08T01:45:34.869Z,-4.0
2018-02-08T01:46:36.251Z,-3.9
2018-02-08T01:47:37.638Z,-4.0
2018-02-08T01:48:39.020Z,-4.0
2018-02-08T01:49:40.405Z,-4.0
2018-02-08T01:50:41.789Z,-4.1
2018-02-08T01:51:43.174Z,-4.0
2018-02-08T01:52:44.570Z,-4.1
2018-02-08T01:53:46.023Z,-4.0
2018-02-08T01:54:47.402Z,-4.2
2018-02-08T01:55:48.789Z,-4.1
2018-02-08T01:56:50.174Z,-4.2
2018-02-08T01:57:51.560Z,-4.1
2018-02-08T01:58:52.941Z,-4.1
2018-02-08T01:59:54.327Z,-4.2
2018-02-08T02:00:55.710Z,-4.2
2018-02-08T02:01:57.096Z,-4.1
2018-02-08T02:02:58.479Z,-4.2
2018-02-08T02:03:59.868Z,-4.2
2018-02-08T02:05:01.256Z,-4.2
2018-02-08T02:06:02.637Z,-4.2
2018-02-08T02:07:04.019Z,-4.1
2018-02-08T02:08:05.399Z,-4.2
2018-02-08T02:09:06.781Z,-4.2
2018-02-08T02:10:08.164Z,-4.2
2018-02-08T02:11:09.548Z,-4.3
2018-02-08T02:12:10.934Z,-4.2
2018-02-08T02:13:12.315Z,-4.2
2018-02-08T02:14:13.699Z,-4.2
2018-02-08T02:15:15.080Z,-4.3
2018-02-08T02:16:16.462Z,-4.3
2018-02-08T02:17:17.847Z,-4.3
2018-02-08T02:18:19.231Z,-4.2
2018-02-08T02:19:20.616Z,-4.3
2018-02-08T02:20:22.003Z,-4.3
2018-02-08T02:21:23.385Z,-4.2
2018-02-08T02:22:24.767Z,-4.3
2018-02-08T02:23:26.149Z,-4.2
2018-02-08T02:24:27.534Z,-4.3
2018-02-08T02:25:28.920Z,-4.3
2018-02-08T02:26:30.309Z,-4.2
2018-02-08T02:27:31.689Z,-4.3
2018-02-08T02:28:33.075Z,-4.3
2018-02-08T02:29:34.460Z,-4.2
2018-02-08T02:30:35.840Z,-4.3
2018-02-08T02:31:37.226Z,-4.2
2018-02-08T02:32:38.613Z,-4.2
2018-02-08T02:33:40.001Z,-4.2
2018-02-08T02:34:41.382Z,-4.2
2018-02-08T02:35:42.766Z,-4.2
2018-02-08T02:36:44.147Z,-4.2
2018-02-08T02:37:45.531Z,-4.2
2018-02-08T02:38:46.940Z,-4.2
2018-02-08T02:39:48.326Z,-4.3
2018-02-08T02:40:49.711Z,-4.3
2018-02-08T02:41:51.092Z,-4.2
2018-02-08T02:42:52.475Z,-4.3
2018-02-08T02:43:53.903Z,-4.3
2018-02-08T02:44:55.291Z,-4.3
2018-02-08T02:45:56.686Z,-4.4
2018-02-08T02:46:58.060Z,-4.4
2018-02-08T02:47:59.446Z,-4.5
2018-02-08T02:49:00.833Z,-4.4
2018-02-08T02:50:02.228Z,-4.4
2018-02-08T02:51:03.614Z,-4.4
2018-02-08T02:52:04.999Z,-4.4
2018-02-08T02:53:06.382Z,-4.4
2018-02-08T02:54:07.764Z,-4.4
2018-02-08T02:55:09.149Z,-4.5
2018-02-08T02:56:10.536Z,-4.5
2018-02-08T02:57:11.914Z,-4.5
2018-02-08T02:58:13.295Z,-4.5
2018-02-08T02:59:14.679Z,-4.6
2018-02-08T03:00:16.127Z,-4.5
2018-02-08T03:01:17.450Z,-4.5
2018-02-08T03:02:18.837Z,-4.6
2018-02-08T03:03:20.220Z,-4.6
2018-02-08T03:04:21.602Z,-4.6
2018-02-08T03:05:22.982Z,-4.6
2018-02-08T03:06:24.366Z,-4.5
2018-02-08T03:07:25.751Z,-4.6
2018-02-08T03:08:27.139Z,-4.6
2018-02-08T03:09:28.529Z,-4.7
2018-02-08T03:10:29.904Z,-4.7
2018-02-08T03:11:31.284Z,-4.7
2018-02-08T03:12:32.685Z,-4.6
2018-02-08T03:13:34.069Z,-4.6
2018-02-08T03:14:35.453Z,-4.6
2018-02-08T03:15:36.837Z,-4.6
2018-02-08T03:16:38.221Z,-4.6
2018-02-08T03:17:39.600Z,-4.6
2018-02-08T03:18:40.982Z,-4.6
2018-02-08T03:19:42.365Z,-4.6
2018-02-08T03:20:43.751Z,-4.6
2018-02-08T03:21:45.137Z,-4.5
2018-02-08T03:22:46.521Z,-4.6
2018-02-08T03:23:47.910Z,-4.6
2018-02-08T03:24:49.292Z,-4.6
2018-02-08T03:25:50.675Z,-4.6
2018-02-08T03:26:52.060Z,-4.6
2018-02-08T03:27:53.441Z,-4.6
2018-02-08T03:28:54.825Z,-4.6
2018-02-08T03:29:56.211Z,-4.6
2018-02-08T03:30:57.595Z,-4.5
2018-02-08T03:31:58.979Z,-4.6
2018-02-08T03:33:00.361Z,-4.6
2018-02-08T03:34:01.855Z,-4.5
2018-02-08T03:35:03.269Z,-4.6
2018-02-08T03:36:04.653Z,-4.6
2018-02-08T03:37:06.040Z,-4.6
2018-02-08T03:38:07.428Z,-4.6
2018-02-08T03:39:08.802Z,-4.6
2018-02-08T03:40:10.185Z,-4.6
2018-02-08T03:41:11.568Z,-4.6
2018-02-08T03:42:12.949Z,-4.7
2018-02-08T03:43:14.336Z,-4.6
2018-02-08T03:44:15.720Z,-4.6
2018-02-08T03:45:17.112Z,-4.5
2018-02-08T03:46:18.485Z,-4.6
2018-02-08T03:47:19.868Z,-4.7
2018-02-08T03:48:21.252Z,-4.7
2018-02-08T03:49:22.636Z,-4.7
2018-02-08T03:50:24.025Z,-4.6
2018-02-08T03:51:25.403Z,-4.7
2018-02-08T03:52:26.790Z,-4.7
2018-02-08T03:53:28.171Z,-4.6
2018-02-08T03:54:29.553Z,-4.6
2018-02-08T03:55:30.937Z,-4.6
2018-02-08T03:56:32.320Z,-4.6
2018-02-08T03:57:33.703Z,-4.6
2018-02-08T03:58:35.086Z,-4.6
2018-02-08T03:59:36.469Z,-4.7
2018-02-08T04:00:37.876Z,-4.7
2018-02-08T04:01:39.260Z,-4.6
2018-02-08T04:02:40.641Z,-4.7
2018-02-08T04:03:42.028Z,-4.7
2018-02-08T04:04:43.411Z,-4.7
2018-02-08T04:05:44.796Z,-4.8
2018-02-08T04:06:46.183Z,-4.6
2018-02-08T04:07:47.567Z,-4.7
2018-02-08T04:08:48.950Z,-4.7
2018-02-08T04:09:50.331Z,-4.8
2018-02-08T04:10:51.715Z,-4.9
2018-02-08T04:11:53.098Z,-4.8
2018-02-08T04:12:54.482Z,-4.8
2018-02-08T04:13:55.869Z,-4.7
2018-02-08T04:14:57.248Z,-4.7
2018-02-08T04:15:58.630Z,-4.8
2018-02-08T04:17:00.013Z,-4.8
2018-02-08T04:18:01.401Z,-4.8
2018-02-08T04:19:02.783Z,-4.9
2018-02-08T04:20:04.163Z,-4.8
2018-02-08T04:21:05.554Z,-4.8
2018-02-08T04:22:06.936Z,-4.8
2018-02-08T04:23:08.320Z,-4.7
2018-02-08T04:24:09.703Z,-4.8
2018-02-08T04:25:11.098Z,-4.8
2018-02-08T04:26:12.484Z,-4.8
2018-02-08T04:27:13.868Z,-4.8
2018-02-08T04:28:15.256Z,-4.8
2018-02-08T04:29:16.639Z,-4.9
2018-02-08T04:30:18.029Z,-4.8
2018-02-08T04:31:19.401Z,-4.8
2018-02-08T04:32:20.786Z,-4.9
2018-02-08T04:33:22.172Z,-4.9
2018-02-08T04:34:23.553Z,-4.9
2018-02-08T04:35:24.939Z,-5.0
2018-02-08T04:36:26.324Z,-5.0
2018-02-08T04:37:27.705Z,-4.9
2018-02-08T04:38:29.095Z,-5.0
2018-02-08T04:39:30.475Z,-4.9
2018-02-08T04:40:31.863Z,-5.0
2018-02-08T04:41:33.245Z,-5.0
2018-02-08T04:42:34.626Z,-5.0
2018-02-08T04:43:36.007Z,-5.0
2018-02-08T04:44:37.388Z,-5.0
2018-02-08T04:45:38.768Z,-4.9
2018-02-08T04:46:40.151Z,-5.0
2018-02-08T04:47:41.533Z,-5.0
2018-02-08T04:48:42.919Z,-4.9
2018-02-08T04:49:44.304Z,-4.9
2018-02-08T04:50:45.686Z,-5.0
2018-02-08T04:51:47.067Z,-4.9
2018-02-08T04:52:48.449Z,-5.1
2018-02-08T04:53:49.834Z,-5.1
2018-02-08T04:54:51.217Z,-5.1
2018-02-08T04:55:52.600Z,-5.0
2018-02-08T04:56:53.985Z,-5.1
2018-02-08T04:57:55.370Z,-5.1
2018-02-08T04:58:56.750Z,-5.1
2018-02-08T04:59:58.181Z,-5.1
2018-02-08T05:00:59.564Z,-5.1
2018-02-08T05:02:00.946Z,-5.1
2018-02-08T05:03:02.331Z,-5.1
2018-02-08T05:04:03.714Z,-5.1
2018-02-08T05:05:05.100Z,-5.1
2018-02-08T05:06:06.511Z,-5.1
2018-02-08T05:07:07.864Z,-5.0
2018-02-08T05:08:09.243Z,-5.0
2018-02-08T05:09:10.640Z,-4.9
2018-02-08T05:10:12.011Z,-4.9
2018-02-08T05:11:13.398Z,-4.9
2018-02-08T05:12:14.778Z,-4.9
2018-02-08T05:13:16.159Z,-4.9
2018-02-08T05:14:17.544Z,-5.0
2018-02-08T05:15:18.926Z,-5.0
2018-02-08T05:16:20.428Z,-4.9
2018-02-08T05:17:21.813Z,-4.9
2018-02-08T05:18:23.202Z,-4.9
2018-02-08T05:19:24.582Z,-4.8
2018-02-08T05:20:25.967Z,-4.8
2018-02-08T05:21:27.350Z,-4.9
2018-02-08T05:22:28.780Z,-4.8
2018-02-08T05:23:30.164Z,-4.9
2018-02-08T05:24:31.551Z,-4.8
2018-02-08T05:25:32.935Z,-4.9
2018-02-08T05:26:34.316Z,-4.8
2018-02-08T05:27:35.698Z,-4.8
2018-02-08T05:28:37.079Z,-4.8
2018-02-08T05:29:38.460Z,-4.9
2018-02-08T05:30:39.887Z,-4.9
2018-02-08T05:31:41.226Z,-4.9
2018-02-08T05:32:42.609Z,-4.8
2018-02-08T05:33:43.991Z,-4.9
2018-02-08T05:34:45.371Z,-4.8
2018-02-08T05:35:46.754Z,-4.8
2018-02-08T05:36:48.137Z,-4.8
2018-02-08T05:37:49.524Z,-4.7
2018-02-08T05:38:50.907Z,-4.8
2018-02-08T05:39:52.293Z,-4.8
2018-02-08T05:40:53.711Z,-4.7
2018-02-08T05:41:55.052Z,-4.7
2018-02-08T05:42:56.436Z,-4.7
2018-02-08T05:43:57.819Z,-4.7
2018-02-08T05:44:59.204Z,-4.7
2018-02-08T05:46:00.587Z,-4.7
2018-02-08T05:47:01.972Z,-4.7
2018-02-08T05:48:03.356Z,-4.6
2018-02-08T05:49:04.736Z,-4.6
2018-02-08T05:50:06.118Z,-4.7
2018-02-08T05:51:07.519Z,-4.7
2018-02-08T05:52:08.904Z,-4.7
2018-02-08T05:53:10.287Z,-4.5
2018-02-08T05:54:11.671Z,-4.6
2018-02-08T05:55:13.071Z,-4.7
2018-02-08T05:56:14.453Z,-4.5
2018-02-08T05:57:15.835Z,-4.6
2018-02-08T05:58:17.221Z,-4.7
2018-02-08T05:59:18.606Z,-4.6
2018-02-08T06:00:19.990Z,-4.8
2018-02-08T06:01:21.374Z,-4.8
2018-02-08T06:02:22.774Z,-4.8
2018-02-08T06:03:24.155Z,-4.7
2018-02-08T06:04:25.543Z,-4.6
2018-02-08T06:05:26.945Z,-4.8
2018-02-08T06:06:28.376Z,-4.7
2018-02-08T06:07:29.788Z,-4.8
2018-02-08T06:08:31.176Z,-4.7
2018-02-08T06:09:32.554Z,-4.6
2018-02-08T06:10:33.939Z,-4.7
2018-02-08T06:11:35.318Z,-4.7
2018-02-08T06:12:36.753Z,-4.7
2018-02-08T06:13:38.095Z,-4.7
2018-02-08T06:14:39.481Z,-4.7
2018-02-08T06:15:40.867Z,-4.6
2018-02-08T06:16:42.248Z,-4.6
2018-02-08T06:17:43.631Z,-4.6
2018-02-08T06:18:45.012Z,-4.6
2018-02-08T06:19:46.397Z,-4.6
2018-02-08T06:20:47.783Z,-4.6
2018-02-08T06:21:49.166Z,-4.6
2018-02-08T06:22:50.554Z,-4.5
2018-02-08T06:23:51.937Z,-4.4
2018-02-08T06:24:53.323Z,-4.5
2018-02-08T06:25:54.705Z,-4.5
2018-02-08T06:26:56.090Z,-4.5
2018-02-08T06:27:57.573Z,-4.6
2018-02-08T06:28:58.962Z,-4.6
2018-02-08T06:30:00.358Z,-4.5
2018-02-08T06:31:01.740Z,-4.5
2018-02-08T06:32:03.122Z,-4.5
2018-02-08T06:33:04.506Z,-4.6
2018-02-08T06:34:05.890Z,-4.5
2018-02-08T06:35:07.274Z,-4.5
2018-02-08T06:36:08.663Z,-4.6
2018-02-08T06:37:10.050Z,-4.6
2018-02-08T06:38:11.430Z,-4.5
2018-02-08T06:39:12.841Z,-4.6
2018-02-08T06:40:14.220Z,-4.6
2018-02-08T06:41:15.605Z,-4.6
2018-02-08T06:42:17.175Z,-4.6
2018-02-08T06:43:18.569Z,-4.6
2018-02-08T06:44:19.961Z,-4.6
2018-02-08T06:45:21.345Z,-4.5
2018-02-08T06:46:22.725Z,-4.6
2018-02-08T06:47:24.108Z,-4.5
2018-02-08T06:48:25.493Z,-4.6
2018-02-08T06:49:26.877Z,-4.6
2018-02-08T06:50:28.260Z,-4.6
2018-02-08T06:51:29.648Z,-4.7
2018-02-08T06:52:31.031Z,-4.5
2018-02-08T06:53:32.442Z,-4.5
2018-02-08T06:54:33.827Z,-4.5
2018-02-08T06:55:35.211Z,-4.5
2018-02-08T06:56:36.596Z,-4.6
2018-02-08T06:57:38.049Z,-4.5
2018-02-08T06:58:39.438Z,-4.6
2018-02-08T06:59:40.819Z,-4.6
2018-02-08T07:00:42.204Z,-4.5
2018-02-08T07:01:43.588Z,-4.5
2018-02-08T07:02:44.972Z,-4.6
2018-02-08T07:03:46.359Z,-4.5
2018-02-08T07:04:47.742Z,-4.5
2018-02-08T07:05:49.126Z,-4.5
2018-02-08T07:06:50.509Z,-4.5
2018-02-08T07:07:51.893Z,-4.5
2018-02-08T07:08:53.323Z,-4.5
2018-02-08T07:09:54.664Z,-4.5
2018-02-08T07:10:56.052Z,-4.5
2018-02-08T07:11:57.442Z,-4.4
2018-02-08T07:12:58.836Z,-4.6
2018-02-08T07:14:00.217Z,-4.5
2018-02-08T07:15:01.598Z,-4.6
2018-02-08T07:16:02.987Z,-4.5
2018-02-08T07:17:04.374Z,-4.5
2018-02-08T07:18:05.758Z,-4.5
2018-02-08T07:19:07.143Z,-4.5
2018-02-08T07:20:08.532Z,-4.5
2018-02-08T07:21:09.918Z,-4.5
2018-02-08T07:22:11.302Z,-4.5
2018-02-08T07:23:12.702Z,-4.4
2018-02-08T07:24:15.428Z,-4.4
2018-02-08T07:25:16.817Z,-4.4
2018-02-08T07:26:18.206Z,-4.5
2018-02-08T07:27:19.598Z,-4.5
2018-02-08T07:28:20.983Z,-4.5
2018-02-08T07:29:22.368Z,-4.4
2018-02-08T07:30:23.753Z,-4.3
2018-02-08T07:31:25.140Z,-4.3
2018-02-08T07:32:26.553Z,-4.3
2018-02-08T07:33:27.939Z,-4.4
2018-02-08T07:34:29.331Z,-4.3
2018-02-08T07:35:30.721Z,-4.2
2018-02-08T07:36:32.107Z,-4.3
2018-02-08T07:37:33.496Z,-4.2
2018-02-08T07:38:34.885Z,-4.2
2018-02-08T07:39:36.266Z,-4.2
2018-02-08T07:40:37.652Z,-4.2
2018-02-08T07:41:39.041Z,-4.0
2018-02-08T07:42:40.426Z,-4.1
2018-02-08T07:43:41.811Z,-3.9
2018-02-08T07:44:43.235Z,-3.9
2018-02-08T07:45:44.671Z,-4.0
2018-02-08T07:46:46.262Z,-3.9
2018-02-08T07:47:47.665Z,-3.9
2018-02-08T07:48:49.083Z,-3.8
2018-02-08T07:49:50.468Z,-3.7
2018-02-08T07:50:51.852Z,-3.7
2018-02-08T07:51:53.260Z,-3.7
2018-02-08T07:52:54.648Z,-3.6
2018-02-08T07:53:56.038Z,-3.5
2018-02-08T07:54:57.423Z,-3.5
2018-02-08T07:55:58.814Z,-3.5
2018-02-08T07:57:00.200Z,-3.4
2018-02-08T07:58:01.587Z,-3.4
2018-02-08T07:59:02.974Z,-3.3
2018-02-08T08:00:04.362Z,-3.4
2018-02-08T08:01:05.751Z,-3.3
2018-02-08T08:02:07.137Z,-3.3
2018-02-08T08:03:08.530Z,-3.3
2018-02-08T08:04:09.918Z,-3.2
2018-02-08T08:05:11.308Z,-3.2
2018-02-08T08:06:12.706Z,-3.2
2018-02-08T08:07:14.095Z,-3.0
2018-02-08T08:08:15.478Z,-3.2
2018-02-08T08:09:16.872Z,-3.0
2018-02-08T08:10:18.272Z,-3.1
2018-02-08T08:11:19.656Z,-3.1
2018-02-08T08:12:21.046Z,-3.1
2018-02-08T08:13:22.433Z,-3.1
2018-02-08T08:14:23.825Z,-2.9
2018-02-08T08:15:25.214Z,-3.0
2018-02-08T08:16:26.601Z,-3.0
2018-02-08T08:17:27.992Z,-3.0
2018-02-08T08:18:29.377Z,-2.9
2018-02-08T08:19:30.776Z,-3.0
2018-02-08T08:20:32.151Z,-2.8
2018-02-08T08:21:33.539Z,-2.9
2018-02-08T08:22:34.928Z,-2.8
2018-02-08T08:23:36.324Z,-2.9
2018-02-08T08:24:37.912Z,-3.0
2018-02-08T08:25:39.358Z,-2.9
2018-02-08T08:26:40.745Z,-2.9
2018-02-08T08:27:42.132Z,-2.9
2018-02-08T08:28:43.526Z,-2.8
2018-02-08T08:29:44.918Z,-2.8
2018-02-08T08:30:46.306Z,-2.8
2018-02-08T08:31:47.696Z,-2.8
2018-02-08T08:32:49.165Z,-2.8
2018-02-08T08:33:50.511Z,-2.7
2018-02-08T08:34:51.939Z,-2.6
2018-02-08T08:35:53.382Z,-2.6
2018-02-08T08:36:54.776Z,-2.5
2018-02-08T08:37:56.169Z,-2.5
2018-02-08T08:38:57.614Z,-2.5
2018-02-08T08:39:58.957Z,-2.4
2018-02-08T08:41:00.344Z,-2.2
2018-02-08T08:42:01.746Z,-2.3
2018-02-08T08:43:03.133Z,-2.2
2018-02-08T08:44:04.522Z,-2.2
2018-02-08T08:45:05.912Z,-2.1
2018-02-08T08:46:07.312Z,-2.1
2018-02-08T08:47:08.700Z,-1.9
2018-02-08T08:48:10.098Z,-1.9
2018-02-08T08:49:11.480Z,-1.8
2018-02-08T08:50:12.875Z,-1.8
2018-02-08T08:51:14.264Z,-1.8
2018-02-08T08:52:15.685Z,-1.7
2018-02-08T08:53:17.048Z,-1.7
2018-02-08T08:54:18.432Z,-1.6
2018-02-08T08:55:19.820Z,-1.7
2018-02-08T08:56:21.216Z,-1.7
2018-02-08T08:57:22.605Z,-1.7
2018-02-08T08:58:24.005Z,-1.6
2018-02-08T08:59:25.394Z,-1.7
2018-02-08T09:00:27.233Z,-1.5
2018-02-08T09:01:29.045Z,-1.5
2018-02-08T09:02:30.695Z,-1.4
2018-02-08T09:03:32.458Z,-1.4
2018-02-08T09:04:33.854Z,-1.4
2018-02-08T09:05:35.242Z,-1.4
2018-02-08T09:06:36.630Z,-1.4
2018-02-08T09:07:38.023Z,-1.3
2018-02-08T09:08:39.412Z,-1.4
2018-02-08T09:09:40.801Z,-1.5
2018-02-08T09:10:42.311Z,-1.6
2018-02-08T09:11:43.699Z,-1.6
2018-02-08T09:12:45.164Z,-1.5
2018-02-08T09:13:46.698Z,-1.5
2018-02-08T09:14:48.258Z,-1.5
2018-02-08T09:15:49.790Z,-1.5
2018-02-08T09:16:51.453Z,-1.5
2018-02-08T09:17:53.066Z,-1.5
2018-02-08T09:18:54.863Z,-1.5
2018-02-08T09:19:56.391Z,-1.5
2018-02-08T09:20:58.029Z,-1.5
2018-02-08T09:21:59.702Z,-1.4
2018-02-08T09:23:01.488Z,-1.4
2018-02-08T09:24:03.140Z,-1.4
2018-02-08T09:25:05.023Z,-1.4
2018-02-08T09:26:06.783Z,-1.4
2018-02-08T09:27:08.582Z,-1.4
2018-02-08T09:28:10.148Z,-1.4
2018-02-08T09:29:11.590Z,-1.4
2018-02-08T09:30:12.979Z,-1.4
2018-02-08T09:31:14.370Z,-1.4
2018-02-08T09:32:15.757Z,-1.3
2018-02-08T09:33:17.145Z,-1.3
2018-02-08T09:34:18.533Z,-1.2
2018-02-08T09:35:19.923Z,-1.2
2018-02-08T09:36:21.316Z,-1.2
2018-02-08T09:37:22.706Z,-1.3
2018-02-08T09:38:24.093Z,-1.2
2018-02-08T09:39:25.480Z,-1.2
2018-02-08T09:40:26.870Z,-1.3
2018-02-08T09:41:28.262Z,-1.1
2018-02-08T09:42:29.657Z,-1.0
2018-02-08T09:43:31.049Z,-1.1
2018-02-08T09:44:32.438Z,-0.9
2018-02-08T09:45:33.828Z,-0.8
2018-02-08T09:46:35.222Z,-0.8
2018-02-08T09:47:36.615Z,-0.7
2018-02-08T09:48:38.008Z,-0.6
2018-02-08T09:49:39.395Z,-0.7
2018-02-08T09:50:40.789Z,-0.6
2018-02-08T09:51:42.176Z,-0.6
2018-02-08T09:52:43.564Z,-0.6
2018-02-08T09:53:44.954Z,-0.5
2018-02-08T09:54:46.346Z,-0.6
2018-02-08T09:55:47.740Z,-0.6
2018-02-08T09:56:49.135Z,-0.6
2018-02-08T09:57:50.524Z,-0.5
2018-02-08T09:58:51.920Z,-0.5
2018-02-08T09:59:53.308Z,-0.4
2018-02-08T10:00:54.699Z,-0.4
2018-02-08T10:01:56.088Z,-0.3
2018-02-08T10:02:57.477Z,-0.4
2018-02-08T10:03:58.868Z,-0.2
2018-02-08T10:05:00.351Z,-0.2
2018-02-08T10:06:01.764Z,-0.1
2018-02-08T10:07:03.147Z,0.0
2018-02-08T10:08:04.537Z,0.1
2018-02-08T10:09:05.937Z,0.2
2018-02-08T10:10:07.319Z,0.2
2018-02-08T10:11:08.705Z,0.2
2018-02-08T10:12:10.095Z,0.1
2018-02-08T10:13:11.481Z,0.2
2018-02-08T10:14:12.868Z,0.5
2018-02-08T10:15:14.255Z,0.5
2018-02-08T10:16:15.642Z,0.7
2018-02-08T10:17:17.034Z,0.7
2018-02-08T10:18:18.424Z,0.8
2018-02-08T10:19:19.818Z,0.9
2018-02-08T10:20:21.205Z,1.0
2018-02-08T10:21:22.595Z,1.2
2018-02-08T10:22:23.982Z,1.3
2018-02-08T10:23:25.372Z,1.5
2018-02-08T10:24:26.763Z,1.7
2018-02-08T10:25:28.154Z,1.7
2018-02-08T10:26:29.544Z,1.9
2018-02-08T10:27:30.933Z,2.2
2018-02-08T10:28:32.321Z,2.6
2018-02-08T10:29:33.715Z,3.1
2018-02-08T10:30:35.106Z,3.6
2018-02-08T10:31:36.495Z,4.1
2018-02-08T10:32:37.888Z,4.1
2018-02-08T10:33:39.282Z,4.7
2018-02-08T10:34:40.673Z,4.9
2018-02-08T10:35:42.064Z,4.8
2018-02-08T10:36:43.462Z,4.7
2018-02-08T10:37:44.852Z,4.5
2018-02-08T10:38:46.246Z,4.8
2018-02-08T10:39:47.641Z,4.6
2018-02-08T10:40:49.036Z,4.6
2018-02-08T10:41:50.430Z,4.5
2018-02-08T10:42:51.822Z,4.7
2018-02-08T10:43:53.214Z,4.9
2018-02-08T10:44:54.611Z,5.6
2018-02-08T10:45:56.006Z,6.1
2018-02-08T10:46:57.438Z,6.5
2018-02-08T10:47:58.834Z,6.7
2018-02-08T10:49:00.234Z,7.0
2018-02-08T10:50:01.628Z,7.4
2018-02-08T10:51:03.054Z,7.6
2018-02-08T10:52:04.450Z,7.7
2018-02-08T10:53:05.962Z,7.9
2018-02-08T10:54:07.450Z,8.6
2018-02-08T10:55:08.850Z,8.9
2018-02-08T10:56:10.243Z,9.1
2018-02-08T10:57:11.640Z,9.5
2018-02-08T10:58:13.034Z,9.5
2018-02-08T10:59:14.430Z,9.8
2018-02-08T11:00:15.828Z,10.2
2018-02-08T11:01:17.225Z,10.1
2018-02-08T11:02:18.627Z,10.4
2018-02-08T11:03:20.021Z,10.8
2018-02-08T11:04:21.416Z,11.0
2018-02-08T11:05:22.838Z,11.1
2018-02-08T11:06:24.234Z,11.3
2018-02-08T11:07:25.635Z,11.8
2018-02-08T11:08:27.033Z,12.1
2018-02-08T11:09:28.432Z,12.3
2018-02-08T11:10:29.836Z,12.6
2018-02-08T11:11:31.233Z,12.8
2018-02-08T11:12:32.632Z,12.9
2018-02-08T11:13:34.031Z,13.0
2018-02-08T11:14:35.430Z,13.0
2018-02-08T11:15:36.829Z,13.1
2018-02-08T11:16:38.235Z,13.1
2018-02-08T11:17:39.639Z,13.0
2018-02-08T11:18:41.031Z,13.0
2018-02-08T11:19:42.477Z,13.2
2018-02-08T11:20:43.831Z,13.4
2018-02-08T11:21:45.233Z,13.5
2018-02-08T11:22:46.635Z,13.3
2018-02-08T11:23:48.037Z,13.6
2018-02-08T11:24:49.441Z,13.7
2018-02-08T11:25:50.848Z,13.8
2018-02-08T11:26:52.246Z,14.1
2018-02-08T11:27:53.646Z,14.0
2018-02-08T11:28:55.105Z,14.2
2018-02-08T11:29:56.504Z,14.5
2018-02-08T11:30:57.903Z,14.8
2018-02-08T11:31:59.305Z,14.8
2018-02-08T11:33:00.706Z,14.8
2018-02-08T11:34:02.119Z,14.3
2018-02-08T11:35:03.563Z,13.9
2018-02-08T11:36:04.956Z,13.2
2018-02-08T11:37:06.365Z,12.3
2018-02-08T11:38:07.818Z,11.9
2018-02-08T11:39:09.219Z,11.5
2018-02-08T11:40:10.680Z,10.9
2018-02-08T11:41:12.165Z,10.5
2018-02-08T11:42:13.562Z,10.0
2018-02-08T11:43:14.960Z,9.8
2018-02-08T11:44:16.357Z,9.7
2018-02-08T11:45:17.755Z,9.5
2018-02-08T11:46:19.148Z,9.2
2018-02-08T11:47:20.547Z,9.1
2018-02-08T11:48:21.945Z,8.9
2018-02-08T11:49:23.345Z,8.8
2018-02-08T11:50:24.743Z,8.6
2018-02-08T11:51:26.134Z,8.4
2018-02-08T11:52:27.531Z,8.5
2018-02-08T11:53:28.924Z,8.2
2018-02-08T11:54:30.325Z,8.1
2018-02-08T11:55:31.750Z,8.0
2018-02-08T11:56:33.156Z,7.9
2018-02-08T11:57:34.577Z,7.9
2018-02-08T11:58:35.971Z,7.6
2018-02-08T11:59:37.379Z,7.7
2018-02-08T12:00:38.766Z,7.7
2018-02-08T12:01:40.168Z,7.9
2018-02-08T12:02:41.566Z,8.1
2018-02-08T12:03:42.961Z,8.8
2018-02-08T12:04:44.359Z,9.6
2018-02-08T12:05:45.761Z,10.1
2018-02-08T12:06:47.161Z,10.2
2018-02-08T12:07:48.556Z,10.0
2018-02-08T12:08:49.995Z,9.5
2018-02-08T12:09:51.371Z,9.0
2018-02-08T12:10:52.771Z,8.7
2018-02-08T12:11:54.190Z,8.4
2018-02-08T12:12:55.585Z,8.2
2018-02-08T12:13:57.001Z,8.1
2018-02-08T12:14:58.405Z,8.0
2018-02-08T12:15:59.802Z,8.0
2018-02-08T12:17:01.197Z,8.0
2018-02-08T12:18:02.595Z,7.9
2018-02-08T12:19:04.015Z,7.7
2018-02-08T12:20:05.416Z,8.2
2018-02-08T12:21:06.827Z,8.8
2018-02-08T12:22:08.269Z,9.6
2018-02-08T12:23:09.660Z,10.4
2018-02-08T12:24:11.060Z,10.9
2018-02-08T12:25:12.457Z,11.1
2018-02-08T12:26:13.852Z,10.9
2018-02-08T12:27:15.319Z,10.7
2018-02-08T12:28:16.785Z,10.4
2018-02-08T12:29:18.180Z,10.1
2018-02-08T12:30:19.571Z,9.7
2018-02-08T12:31:20.968Z,9.4
2018-02-08T12:32:22.361Z,9.3
2018-02-08T12:33:23.752Z,9.2
2018-02-08T12:34:25.144Z,9.0
2018-02-08T12:35:26.539Z,8.5
2018-02-08T12:36:27.932Z,8.2
2018-02-08T12:37:29.323Z,7.9
2018-02-08T12:38:30.715Z,7.7
2018-02-08T12:39:32.111Z,7.6
2018-02-08T12:40:33.504Z,7.4
2018-02-08T12:41:34.923Z,7.4
2018-02-08T12:42:36.316Z,7.4
2018-02-08T12:43:37.727Z,7.5
2018-02-08T12:44:39.129Z,7.3
2018-02-08T12:45:40.533Z,7.4
2018-02-08T12:46:41.926Z,7.3
2018-02-08T12:47:43.316Z,7.1
2018-02-08T12:48:44.733Z,7.1
2018-02-08T12:49:46.127Z,7.1
2018-02-08T12:50:47.516Z,6.9
2018-02-08T12:51:48.912Z,6.8
2018-02-08T12:52:50.315Z,6.9
2018-02-08T12:53:51.694Z,6.9
2018-02-08T12:54:53.087Z,6.8
2018-02-08T12:55:54.481Z,6.8
2018-02-08T12:56:55.877Z,6.9
2018-02-08T12:57:57.266Z,6.8
2018-02-08T12:58:58.659Z,6.9
2018-02-08T13:00:00.057Z,6.9
2018-02-08T13:01:01.439Z,6.8
2018-02-08T13:02:02.832Z,6.8
2018-02-08T13:03:04.224Z,6.8
2018-02-08T13:04:05.616Z,6.8
2018-02-08T13:05:07.008Z,6.8
2018-02-08T13:06:08.398Z,6.7
2018-02-08T13:07:09.791Z,6.6
2018-02-08T13:08:11.181Z,6.7
2018-02-08T13:09:12.574Z,6.7
2018-02-08T13:10:13.969Z,6.6
2018-02-08T13:11:15.368Z,6.4
2018-02-08T13:12:16.755Z,6.3
2018-02-08T13:13:18.145Z,6.3
2018-02-08T13:14:19.539Z,6.3
2018-02-08T13:15:21.031Z,6.3
2018-02-08T13:16:22.477Z,6.3
2018-02-08T13:17:23.874Z,6.2
2018-02-08T13:18:25.268Z,6.3
2018-02-08T13:19:26.657Z,6.4
2018-02-08T13:20:28.046Z,6.3
2018-02-08T13:21:29.442Z,6.3
2018-02-08T13:22:30.834Z,6.3
2018-02-08T13:23:32.224Z,6.2
2018-02-08T13:24:33.617Z,6.2
2018-02-08T13:25:35.012Z,6.2
2018-02-08T13:26:36.405Z,6.3
2018-02-08T13:27:37.795Z,6.3
2018-02-08T13:28:39.191Z,6.3
2018-02-08T13:29:40.586Z,6.3
2018-02-08T13:30:41.978Z,6.4
2018-02-08T13:31:43.373Z,6.4
2018-02-08T13:32:44.766Z,6.6
2018-02-08T13:33:46.157Z,6.5
2018-02-08T13:34:47.596Z,6.6
2018-02-08T13:35:48.981Z,6.7
2018-02-08T13:36:50.374Z,6.6
2018-02-08T13:37:51.766Z,6.7
2018-02-08T13:38:53.158Z,6.7
2018-02-08T13:39:54.552Z,6.7
2018-02-08T13:40:55.943Z,6.6
2018-02-08T13:41:57.333Z,6.7